sensor_id;sensor_type;location;lat;lon;timestamp;temperature;humidity
10314;DHT22;5202;49.138;10.090;2024-01-07T00:01:14;4.20;99.90
10314;DHT22;5202;49.138;10.090;2024-01-07T00:03:42;4.20;99.90
10314;DHT22;5202;49.138;10.090;2024-01-07T00:06:11;4.20;99.90
10314;DHT22;5202;49.138;10.090;2024-01-07T00:08:41;4.20;99.90
10314;DHT22;5202;49.138;10.090;2024-01-07T00:11:09;4.30;99.90
10314;DHT22;5202;49.138;10.090;2024-01-07T00:13:38;4.30;99.90
10314;DHT22;5202;49.138;10.090;2024-01-07T00:16:06;4.30;99.90
10314;DHT22;5202;49.138;10.090;2024-01-07T00:18:35;4.30;99.90
10314;DHT22;5202;49.138;10.090;2024-01-07T00:21:04;4.20;99.90
10314;DHT22;5202;49.138;10.090;2024-01-07T00:23:32;4.30;99.90
10314;DHT22;5202;49.138;10.090;2024-01-07T00:26:02;4.30;99.90
10314;DHT22;5202;49.138;10.090;2024-01-07T00:28:30;4.30;99.90
10314;DHT22;5202;49.138;10.090;2024-01-07T00:30:59;4.20;99.90
10314;DHT22;5202;49.138;10.090;2024-01-07T00:33:28;4.20;99.90
10314;DHT22;5202;49.138;10.090;2024-01-07T00:35:59;4.20;99.90
10314;DHT22;5202;49.138;10.090;2024-01-07T00:38:27;4.10;99.90
10314;DHT22;5202;49.138;10.090;2024-01-07T00:40:56;4.10;99.90
10314;DHT22;5202;49.138;10.090;2024-01-07T00:43:25;4.00;99.90
10314;DHT22;5202;49.138;10.090;2024-01-07T00:45:54;4.00;99.90
10314;DHT22;5202;49.138;10.090;2024-01-07T00:48:22;4.00;99.90
10314;DHT22;5202;49.138;10.090;2024-01-07T00:50:52;4.00;99.90
10314;DHT22;5202;49.138;10.090;2024-01-07T00:53:20;3.90;99.90
10314;DHT22;5202;49.138;10.090;2024-01-07T00:55:48;4.00;99.90
10314;DHT22;5202;49.138;10.090;2024-01-07T00:58:19;4.00;99.90
10314;DHT22;5202;49.138;10.090;2024-01-07T01:00:48;4.10;99.90
10314;DHT22;5202;49.138;10.090;2024-01-07T01:03:18;4.10;99.90
10314;DHT22;5202;49.138;10.090;2024-01-07T01:05:50;4.20;99.90
10314;DHT22;5202;49.138;10.090;2024-01-07T01:08:22;4.20;99.90
10314;DHT22;5202;49.138;10.090;2024-01-07T01:10:51;4.20;99.90
10314;DHT22;5202;49.138;10.090;2024-01-07T01:13:21;4.20;99.90
10314;DHT22;5202;49.138;10.090;2024-01-07T01:15:51;4.10;99.90
10314;DHT22;5202;49.138;10.090;2024-01-07T01:18:20;4.10;99.90
10314;DHT22;5202;49.138;10.090;2024-01-07T01:20:48;4.00;99.90
10314;DHT22;5202;49.138;10.090;2024-01-07T01:23:17;4.00;99.90
10314;DHT22;5202;49.138;10.090;2024-01-07T01:25:45;4.00;99.90
10314;DHT22;5202;49.138;10.090;2024-01-07T01:28:14;3.90;99.90
10314;DHT22;5202;49.138;10.090;2024-01-07T01:30:42;3.90;99.90
10314;DHT22;5202;49.138;10.090;2024-01-07T01:33:12;3.90;99.90
10314;DHT22;5202;49.138;10.090;2024-01-07T01:35:42;3.90;99.90
10314;DHT22;5202;49.138;10.090;2024-01-07T01:38:10;3.80;99.90
10314;DHT22;5202;49.138;10.090;2024-01-07T01:40:39;3.80;99.90
10314;DHT22;5202;49.138;10.090;2024-01-07T01:43:08;3.80;99.90
10314;DHT22;5202;49.138;10.090;2024-01-07T01:45:36;3.80;99.90
10314;DHT22;5202;49.138;10.090;2024-01-07T01:48:06;3.80;99.90
10314;DHT22;5202;49.138;10.090;2024-01-07T01:50:36;3.90;99.90
10314;DHT22;5202;49.138;10.090;2024-01-07T01:53:04;3.90;99.90
10314;DHT22;5202;49.138;10.090;2024-01-07T01:55:33;3.90;99.90
10314;DHT22;5202;49.138;10.090;2024-01-07T01:58:04;3.90;99.90
10314;DHT22;5202;49.138;10.090;2024-01-07T02:00:32;3.90;99.90
10314;DHT22;5202;49.138;10.090;2024-01-07T02:03:01;3.90;99.90
10314;DHT22;5202;49.138;10.090;2024-01-07T02:05:29;3.90;99.90
10314;DHT22;5202;49.138;10.090;2024-01-07T02:07:59;3.90;99.90
10314;DHT22;5202;49.138;10.090;2024-01-07T02:10:28;3.90;99.90
10314;DHT22;5202;49.138;10.090;2024-01-07T02:13:01;3.90;99.90
10314;DHT22;5202;49.138;10.090;2024-01-07T02:15:31;3.90;99.90
10314;DHT22;5202;49.138;10.090;2024-01-07T02:18:00;3.90;99.90
10314;DHT22;5202;49.138;10.090;2024-01-07T02:20:29;3.90;99.90
10314;DHT22;5202;49.138;10.090;2024-01-07T02:22:59;3.90;99.90
10314;DHT22;5202;49.138;10.090;2024-01-07T02:25:29;3.80;99.90
10314;DHT22;5202;49.138;10.090;2024-01-07T02:27:57;3.80;99.90
10314;DHT22;5202;49.138;10.090;2024-01-07T02:30:26;3.80;99.90
10314;DHT22;5202;49.138;10.090;2024-01-07T02:32:55;3.80;99.90
10314;DHT22;5202;49.138;10.090;2024-01-07T02:35:23;3.90;99.90
10314;DHT22;5202;49.138;10.090;2024-01-07T02:37:52;3.80;99.90
10314;DHT22;5202;49.138;10.090;2024-01-07T02:40:20;3.80;99.90
10314;DHT22;5202;49.138;10.090;2024-01-07T02:42:50;3.80;99.90
10314;DHT22;5202;49.138;10.090;2024-01-07T02:45:19;3.80;99.90
10314;DHT22;5202;49.138;10.090;2024-01-07T02:47:47;3.80;99.90
10314;DHT22;5202;49.138;10.090;2024-01-07T02:50:16;3.80;99.90
10314;DHT22;5202;49.138;10.090;2024-01-07T02:52:44;3.80;99.90
10314;DHT22;5202;49.138;10.090;2024-01-07T02:55:13;3.80;99.90
10314;DHT22;5202;49.138;10.090;2024-01-07T02:57:42;3.70;99.90
10314;DHT22;5202;49.138;10.090;2024-01-07T03:00:12;3.70;99.90
10314;DHT22;5202;49.138;10.090;2024-01-07T03:02:41;3.70;99.90
10314;DHT22;5202;49.138;10.090;2024-01-07T03:05:11;3.70;99.90
10314;DHT22;5202;49.138;10.090;2024-01-07T03:07:46;3.60;99.90
10314;DHT22;5202;49.138;10.090;2024-01-07T03:10:14;3.70;99.90
10314;DHT22;5202;49.138;10.090;2024-01-07T03:12:43;3.60;99.90
10314;DHT22;5202;49.138;10.090;2024-01-07T03:15:13;3.60;99.90
10314;DHT22;5202;49.138;10.090;2024-01-07T03:17:42;3.60;99.90
10314;DHT22;5202;49.138;10.090;2024-01-07T03:20:11;3.70;99.90
10314;DHT22;5202;49.138;10.090;2024-01-07T03:22:39;3.70;99.90
10314;DHT22;5202;49.138;10.090;2024-01-07T03:25:08;3.80;99.90
10314;DHT22;5202;49.138;10.090;2024-01-07T03:27:37;3.70;99.90
10314;DHT22;5202;49.138;10.090;2024-01-07T03:30:06;3.70;99.90
10314;DHT22;5202;49.138;10.090;2024-01-07T03:32:38;3.70;99.90
10314;DHT22;5202;49.138;10.090;2024-01-07T03:35:07;3.60;99.90
10314;DHT22;5202;49.138;10.090;2024-01-07T03:37:36;3.60;99.90
10314;DHT22;5202;49.138;10.090;2024-01-07T03:40:08;3.60;99.90
10314;DHT22;5202;49.138;10.090;2024-01-07T03:42:38;3.70;99.90
10314;DHT22;5202;49.138;10.090;2024-01-07T03:45:07;3.70;99.90
10314;DHT22;5202;49.138;10.090;2024-01-07T03:47:37;3.80;99.90
10314;DHT22;5202;49.138;10.090;2024-01-07T03:50:06;3.80;99.90
10314;DHT22;5202;49.138;10.090;2024-01-07T03:52:35;3.80;99.90
10314;DHT22;5202;49.138;10.090;2024-01-07T03:55:04;3.90;99.90
10314;DHT22;5202;49.138;10.090;2024-01-07T03:57:35;3.90;99.90
10314;DHT22;5202;49.138;10.090;2024-01-07T04:00:05;3.90;99.90
10314;DHT22;5202;49.138;10.090;2024-01-07T04:02:35;3.90;99.90
10314;DHT22;5202;49.138;10.090;2024-01-07T04:05:05;3.90;99.90
10314;DHT22;5202;49.138;10.090;2024-01-07T04:07:34;3.90;99.90
10314;DHT22;5202;49.138;10.090;2024-01-07T04:10:03;3.90;99.90
10314;DHT22;5202;49.138;10.090;2024-01-07T04:12:32;3.90;99.90
10314;DHT22;5202;49.138;10.090;2024-01-07T04:15:00;3.90;99.90
10314;DHT22;5202;49.138;10.090;2024-01-07T04:17:28;3.80;99.90
10314;DHT22;5202;49.138;10.090;2024-01-07T04:19:57;3.80;99.90
10314;DHT22;5202;49.138;10.090;2024-01-07T04:22:26;3.90;99.90
10314;DHT22;5202;49.138;10.090;2024-01-07T04:24:55;3.90;99.90
10314;DHT22;5202;49.138;10.090;2024-01-07T04:27:23;3.90;99.90
10314;DHT22;5202;49.138;10.090;2024-01-07T04:29:52;3.90;99.90
10314;DHT22;5202;49.138;10.090;2024-01-07T04:32:21;3.90;99.90
10314;DHT22;5202;49.138;10.090;2024-01-07T04:34:49;4.00;99.90
10314;DHT22;5202;49.138;10.090;2024-01-07T04:37:17;4.00;99.90
10314;DHT22;5202;49.138;10.090;2024-01-07T04:39:47;3.90;99.90
10314;DHT22;5202;49.138;10.090;2024-01-07T04:42:17;4.00;99.90
10314;DHT22;5202;49.138;10.090;2024-01-07T04:44:45;4.00;99.90
10314;DHT22;5202;49.138;10.090;2024-01-07T04:47:25;4.00;99.90
10314;DHT22;5202;49.138;10.090;2024-01-07T04:49:54;4.00;99.90
10314;DHT22;5202;49.138;10.090;2024-01-07T04:52:24;3.90;99.90
10314;DHT22;5202;49.138;10.090;2024-01-07T04:54:54;3.90;99.90
10314;DHT22;5202;49.138;10.090;2024-01-07T04:57:23;3.90;99.90
10314;DHT22;5202;49.138;10.090;2024-01-07T04:59:52;3.90;99.90
10314;DHT22;5202;49.138;10.090;2024-01-07T05:02:20;3.90;99.90
10314;DHT22;5202;49.138;10.090;2024-01-07T05:04:50;4.00;99.90
10314;DHT22;5202;49.138;10.090;2024-01-07T05:07:18;4.00;99.90
10314;DHT22;5202;49.138;10.090;2024-01-07T05:09:47;4.10;99.90
10314;DHT22;5202;49.138;10.090;2024-01-07T05:12:17;4.00;99.90
10314;DHT22;5202;49.138;10.090;2024-01-07T05:14:45;4.00;99.90
10314;DHT22;5202;49.138;10.090;2024-01-07T05:17:14;3.90;99.90
10314;DHT22;5202;49.138;10.090;2024-01-07T05:19:43;3.90;99.90
10314;DHT22;5202;49.138;10.090;2024-01-07T05:22:11;3.90;99.90
10314;DHT22;5202;49.138;10.090;2024-01-07T05:24:39;3.70;99.90
10314;DHT22;5202;49.138;10.090;2024-01-07T05:27:08;3.70;99.90
10314;DHT22;5202;49.138;10.090;2024-01-07T05:29:38;3.70;99.90
10314;DHT22;5202;49.138;10.090;2024-01-07T05:32:07;3.60;99.90
10314;DHT22;5202;49.138;10.090;2024-01-07T05:34:35;3.50;99.90
10314;DHT22;5202;49.138;10.090;2024-01-07T05:37:04;3.50;99.90
10314;DHT22;5202;49.138;10.090;2024-01-07T05:39:32;3.40;99.90
10314;DHT22;5202;49.138;10.090;2024-01-07T05:42:01;3.40;99.90
10314;DHT22;5202;49.138;10.090;2024-01-07T05:44:29;3.50;99.90
10314;DHT22;5202;49.138;10.090;2024-01-07T05:46:59;3.60;99.90
10314;DHT22;5202;49.138;10.090;2024-01-07T05:49:28;3.50;99.90
10314;DHT22;5202;49.138;10.090;2024-01-07T05:51:56;3.50;99.90
10314;DHT22;5202;49.138;10.090;2024-01-07T05:54:25;3.50;99.90
10314;DHT22;5202;49.138;10.090;2024-01-07T05:56:57;3.40;99.90
10314;DHT22;5202;49.138;10.090;2024-01-07T05:59:26;3.40;99.90
10314;DHT22;5202;49.138;10.090;2024-01-07T06:01:59;3.40;99.90
10314;DHT22;5202;49.138;10.090;2024-01-07T06:04:28;3.50;99.90
10314;DHT22;5202;49.138;10.090;2024-01-07T06:06:56;3.50;99.90
10314;DHT22;5202;49.138;10.090;2024-01-07T06:09:25;3.60;99.90
10314;DHT22;5202;49.138;10.090;2024-01-07T06:11:54;3.60;99.90
10314;DHT22;5202;49.138;10.090;2024-01-07T06:14:23;3.70;99.90
10314;DHT22;5202;49.138;10.090;2024-01-07T06:16:51;3.60;99.90
10314;DHT22;5202;49.138;10.090;2024-01-07T06:19:21;3.70;99.90
10314;DHT22;5202;49.138;10.090;2024-01-07T06:21:50;3.60;99.90
10314;DHT22;5202;49.138;10.090;2024-01-07T06:24:18;3.60;99.90
10314;DHT22;5202;49.138;10.090;2024-01-07T06:26:46;3.50;99.90
10314;DHT22;5202;49.138;10.090;2024-01-07T06:29:15;3.50;99.90
10314;DHT22;5202;49.138;10.090;2024-01-07T06:31:44;3.40;99.90
10314;DHT22;5202;49.138;10.090;2024-01-07T06:34:13;3.40;99.90
10314;DHT22;5202;49.138;10.090;2024-01-07T06:36:44;3.40;99.90
10314;DHT22;5202;49.138;10.090;2024-01-07T06:39:12;3.40;99.90
10314;DHT22;5202;49.138;10.090;2024-01-07T06:41:41;3.50;99.90
10314;DHT22;5202;49.138;10.090;2024-01-07T06:44:10;3.50;99.90
10314;DHT22;5202;49.138;10.090;2024-01-07T06:46:39;3.50;99.90
10314;DHT22;5202;49.138;10.090;2024-01-07T06:49:07;3.50;99.90
10314;DHT22;5202;49.138;10.090;2024-01-07T06:51:37;3.50;99.90
10314;DHT22;5202;49.138;10.090;2024-01-07T06:54:07;3.50;99.90
10314;DHT22;5202;49.138;10.090;2024-01-07T06:56:41;3.50;99.90
10314;DHT22;5202;49.138;10.090;2024-01-07T06:59:09;3.40;99.90
10314;DHT22;5202;49.138;10.090;2024-01-07T07:01:38;3.40;99.90
10314;DHT22;5202;49.138;10.090;2024-01-07T07:04:09;3.40;99.90
10314;DHT22;5202;49.138;10.090;2024-01-07T07:06:38;3.40;99.90
10314;DHT22;5202;49.138;10.090;2024-01-07T07:09:08;3.30;99.90
10314;DHT22;5202;49.138;10.090;2024-01-07T07:11:38;3.30;99.90
10314;DHT22;5202;49.138;10.090;2024-01-07T07:14:07;3.40;99.90
10314;DHT22;5202;49.138;10.090;2024-01-07T07:16:35;3.30;99.90
10314;DHT22;5202;49.138;10.090;2024-01-07T07:19:03;3.30;99.90
10314;DHT22;5202;49.138;10.090;2024-01-07T07:21:32;3.30;99.90
10314;DHT22;5202;49.138;10.090;2024-01-07T07:24:01;3.20;99.90
10314;DHT22;5202;49.138;10.090;2024-01-07T07:26:30;3.10;99.90
10314;DHT22;5202;49.138;10.090;2024-01-07T07:28:59;3.10;99.90
10314;DHT22;5202;49.138;10.090;2024-01-07T07:31:27;3.00;99.90
10314;DHT22;5202;49.138;10.090;2024-01-07T07:33:56;3.00;99.90
10314;DHT22;5202;49.138;10.090;2024-01-07T07:36:25;3.10;99.90
10314;DHT22;5202;49.138;10.090;2024-01-07T07:38:53;3.20;99.90
10314;DHT22;5202;49.138;10.090;2024-01-07T07:41:21;3.10;99.90
10314;DHT22;5202;49.138;10.090;2024-01-07T07:43:51;3.10;99.90
10314;DHT22;5202;49.138;10.090;2024-01-07T07:46:21;3.00;99.90
10314;DHT22;5202;49.138;10.090;2024-01-07T07:48:50;3.00;99.90
10314;DHT22;5202;49.138;10.090;2024-01-07T07:51:19;2.90;99.90
10314;DHT22;5202;49.138;10.090;2024-01-07T07:53:47;2.90;99.90
10314;DHT22;5202;49.138;10.090;2024-01-07T07:56:17;2.90;99.90
10314;DHT22;5202;49.138;10.090;2024-01-07T07:58:45;3.00;99.90
10314;DHT22;5202;49.138;10.090;2024-01-07T08:01:15;3.10;99.90
10314;DHT22;5202;49.138;10.090;2024-01-07T08:03:45;3.00;99.90
10314;DHT22;5202;49.138;10.090;2024-01-07T08:06:14;3.00;99.90
10314;DHT22;5202;49.138;10.090;2024-01-07T08:08:42;3.00;99.90
10314;DHT22;5202;49.138;10.090;2024-01-07T08:11:11;3.00;99.90
10314;DHT22;5202;49.138;10.090;2024-01-07T08:13:41;2.90;99.90
10314;DHT22;5202;49.138;10.090;2024-01-07T08:16:09;2.90;99.90
10314;DHT22;5202;49.138;10.090;2024-01-07T08:18:39;2.70;99.90
10314;DHT22;5202;49.138;10.090;2024-01-07T08:21:08;2.60;99.90
10314;DHT22;5202;49.138;10.090;2024-01-07T08:23:38;2.60;99.90
10314;DHT22;5202;49.138;10.090;2024-01-07T08:26:06;2.70;99.90
10314;DHT22;5202;49.138;10.090;2024-01-07T08:28:34;2.60;99.90
10314;DHT22;5202;49.138;10.090;2024-01-07T08:31:03;2.80;99.90
10314;DHT22;5202;49.138;10.090;2024-01-07T08:33:31;2.80;99.90
10314;DHT22;5202;49.138;10.090;2024-01-07T08:36:02;2.80;99.90
10314;DHT22;5202;49.138;10.090;2024-01-07T08:38:31;2.70;99.90
10314;DHT22;5202;49.138;10.090;2024-01-07T08:40:59;2.70;99.90
10314;DHT22;5202;49.138;10.090;2024-01-07T08:43:27;2.70;99.90
10314;DHT22;5202;49.138;10.090;2024-01-07T08:45:56;2.80;99.90
10314;DHT22;5202;49.138;10.090;2024-01-07T08:48:24;3.00;99.90
10314;DHT22;5202;49.138;10.090;2024-01-07T08:50:53;3.10;99.90
10314;DHT22;5202;49.138;10.090;2024-01-07T08:53:23;3.00;99.90
10314;DHT22;5202;49.138;10.090;2024-01-07T08:55:51;3.10;99.90
10314;DHT22;5202;49.138;10.090;2024-01-07T08:58:20;3.00;99.90
10314;DHT22;5202;49.138;10.090;2024-01-07T09:00:48;3.00;99.90
10314;DHT22;5202;49.138;10.090;2024-01-07T09:03:17;2.90;99.90
10314;DHT22;5202;49.138;10.090;2024-01-07T09:05:47;2.90;99.90
10314;DHT22;5202;49.138;10.090;2024-01-07T09:08:20;3.00;99.90
10314;DHT22;5202;49.138;10.090;2024-01-07T09:10:50;3.00;99.90
10314;DHT22;5202;49.138;10.090;2024-01-07T09:13:19;3.00;99.90
10314;DHT22;5202;49.138;10.090;2024-01-07T09:15:48;3.00;99.90
10314;DHT22;5202;49.138;10.090;2024-01-07T09:18:16;2.90;99.90
10314;DHT22;5202;49.138;10.090;2024-01-07T09:20:45;2.90;99.90
10314;DHT22;5202;49.138;10.090;2024-01-07T09:23:14;2.80;99.90
10314;DHT22;5202;49.138;10.090;2024-01-07T09:25:43;2.70;99.90
10314;DHT22;5202;49.138;10.090;2024-01-07T09:28:14;2.60;99.90
10314;DHT22;5202;49.138;10.090;2024-01-07T09:30:43;2.60;99.90
10314;DHT22;5202;49.138;10.090;2024-01-07T09:33:12;2.60;99.90
10314;DHT22;5202;49.138;10.090;2024-01-07T09:35:42;2.60;99.90
10314;DHT22;5202;49.138;10.090;2024-01-07T09:38:11;2.60;99.90
10314;DHT22;5202;49.138;10.090;2024-01-07T09:40:41;2.70;99.90
10314;DHT22;5202;49.138;10.090;2024-01-07T09:43:11;2.60;99.90
10314;DHT22;5202;49.138;10.090;2024-01-07T09:45:46;2.70;99.90
10314;DHT22;5202;49.138;10.090;2024-01-07T09:48:15;2.60;99.90
10314;DHT22;5202;49.138;10.090;2024-01-07T09:50:44;2.60;99.90
10314;DHT22;5202;49.138;10.090;2024-01-07T09:53:15;2.60;99.90
10314;DHT22;5202;49.138;10.090;2024-01-07T09:55:52;2.60;99.90
10314;DHT22;5202;49.138;10.090;2024-01-07T09:58:25;2.60;99.90
10314;DHT22;5202;49.138;10.090;2024-01-07T10:00:56;2.60;99.90
10314;DHT22;5202;49.138;10.090;2024-01-07T10:03:24;2.40;99.90
10314;DHT22;5202;49.138;10.090;2024-01-07T10:05:53;2.40;99.90
10314;DHT22;5202;49.138;10.090;2024-01-07T10:08:21;2.30;99.90
10314;DHT22;5202;49.138;10.090;2024-01-07T10:10:53;2.20;99.90
10314;DHT22;5202;49.138;10.090;2024-01-07T10:13:22;2.10;99.90
10314;DHT22;5202;49.138;10.090;2024-01-07T10:15:50;2.20;99.90
10314;DHT22;5202;49.138;10.090;2024-01-07T10:18:20;2.20;99.90
10314;DHT22;5202;49.138;10.090;2024-01-07T10:20:49;2.20;99.90
10314;DHT22;5202;49.138;10.090;2024-01-07T10:23:19;2.30;99.90
10314;DHT22;5202;49.138;10.090;2024-01-07T10:25:48;2.30;99.90
10314;DHT22;5202;49.138;10.090;2024-01-07T10:28:17;2.30;99.90
10314;DHT22;5202;49.138;10.090;2024-01-07T10:30:49;2.20;99.90
10314;DHT22;5202;49.138;10.090;2024-01-07T10:33:19;2.10;99.90
10314;DHT22;5202;49.138;10.090;2024-01-07T10:35:53;2.20;99.90
10314;DHT22;5202;49.138;10.090;2024-01-07T10:38:24;2.30;99.90
10314;DHT22;5202;49.138;10.090;2024-01-07T10:40:55;2.30;99.90
10314;DHT22;5202;49.138;10.090;2024-01-07T10:43:24;2.30;99.90
10314;DHT22;5202;49.138;10.090;2024-01-07T10:45:55;2.30;99.90
10314;DHT22;5202;49.138;10.090;2024-01-07T10:48:26;2.30;99.90
10314;DHT22;5202;49.138;10.090;2024-01-07T10:51:00;2.30;99.90
10314;DHT22;5202;49.138;10.090;2024-01-07T10:53:33;2.30;99.90
10314;DHT22;5202;49.138;10.090;2024-01-07T10:56:03;2.40;99.90
10314;DHT22;5202;49.138;10.090;2024-01-07T10:58:33;2.40;99.90
10314;DHT22;5202;49.138;10.090;2024-01-07T11:01:05;2.30;99.90
10314;DHT22;5202;49.138;10.090;2024-01-07T11:03:43;2.20;99.90
10314;DHT22;5202;49.138;10.090;2024-01-07T11:06:21;2.20;99.90
10314;DHT22;5202;49.138;10.090;2024-01-07T11:08:58;2.10;99.90
10314;DHT22;5202;49.138;10.090;2024-01-07T11:11:36;2.10;99.90
10314;DHT22;5202;49.138;10.090;2024-01-07T11:14:34;2.00;99.90
10314;DHT22;5202;49.138;10.090;2024-01-07T11:17:03;1.90;99.90
10314;DHT22;5202;49.138;10.090;2024-01-07T11:19:35;1.80;99.90
10314;DHT22;5202;49.138;10.090;2024-01-07T11:22:24;1.80;99.90
10314;DHT22;5202;49.138;10.090;2024-01-07T11:24:59;1.70;99.90
10314;DHT22;5202;49.138;10.090;2024-01-07T11:27:32;1.80;99.90
10314;DHT22;5202;49.138;10.090;2024-01-07T11:30:03;1.70;99.90
10314;DHT22;5202;49.138;10.090;2024-01-07T11:32:39;1.60;99.90
10314;DHT22;5202;49.138;10.090;2024-01-07T11:35:23;1.50;99.90
10314;DHT22;5202;49.138;10.090;2024-01-07T11:38:25;1.50;99.90
10314;DHT22;5202;49.138;10.090;2024-01-07T11:40:55;1.50;99.90
10314;DHT22;5202;49.138;10.090;2024-01-07T11:43:25;1.50;99.90
10314;DHT22;5202;49.138;10.090;2024-01-07T11:45:55;1.50;99.90
10314;DHT22;5202;49.138;10.090;2024-01-07T11:48:23;1.60;99.90
10314;DHT22;5202;49.138;10.090;2024-01-07T11:50:53;1.70;99.90
10314;DHT22;5202;49.138;10.090;2024-01-07T11:53:22;1.80;99.90
10314;DHT22;5202;49.138;10.090;2024-01-07T11:55:51;1.80;99.90
10314;DHT22;5202;49.138;10.090;2024-01-07T11:58:20;1.60;99.90
10314;DHT22;5202;49.138;10.090;2024-01-07T12:00:48;1.50;99.90
10314;DHT22;5202;49.138;10.090;2024-01-07T12:03:17;1.40;99.90
10314;DHT22;5202;49.138;10.090;2024-01-07T12:05:46;1.50;99.90
10314;DHT22;5202;49.138;10.090;2024-01-07T12:08:16;1.50;99.90
10314;DHT22;5202;49.138;10.090;2024-01-07T12:10:45;1.50;99.90
10314;DHT22;5202;49.138;10.090;2024-01-07T12:13:13;1.50;99.90
10314;DHT22;5202;49.138;10.090;2024-01-07T12:15:43;1.60;99.90
10314;DHT22;5202;49.138;10.090;2024-01-07T12:18:11;1.50;99.90
10314;DHT22;5202;49.138;10.090;2024-01-07T12:20:40;1.40;99.90
10314;DHT22;5202;49.138;10.090;2024-01-07T12:23:09;1.30;99.90
10314;DHT22;5202;49.138;10.090;2024-01-07T12:25:40;1.20;99.90
10314;DHT22;5202;49.138;10.090;2024-01-07T12:28:08;1.20;99.90
10314;DHT22;5202;49.138;10.090;2024-01-07T12:30:37;1.20;99.90
10314;DHT22;5202;49.138;10.090;2024-01-07T12:33:06;1.20;99.90
10314;DHT22;5202;49.138;10.090;2024-01-07T12:35:34;1.20;99.90
10314;DHT22;5202;49.138;10.090;2024-01-07T12:38:05;1.30;99.90
10314;DHT22;5202;49.138;10.090;2024-01-07T12:40:33;1.40;99.90
10314;DHT22;5202;49.138;10.090;2024-01-07T12:43:03;1.50;99.90
10314;DHT22;5202;49.138;10.090;2024-01-07T12:45:33;1.40;99.90
10314;DHT22;5202;49.138;10.090;2024-01-07T12:48:02;1.40;99.90
10314;DHT22;5202;49.138;10.090;2024-01-07T12:50:31;1.40;99.90
10314;DHT22;5202;49.138;10.090;2024-01-07T12:53:00;1.30;99.90
10314;DHT22;5202;49.138;10.090;2024-01-07T12:55:29;1.40;99.90
10314;DHT22;5202;49.138;10.090;2024-01-07T12:57:57;1.50;99.90
10314;DHT22;5202;49.138;10.090;2024-01-07T13:00:27;1.40;99.90
10314;DHT22;5202;49.138;10.090;2024-01-07T13:02:56;1.40;99.90
10314;DHT22;5202;49.138;10.090;2024-01-07T13:05:28;1.40;99.90
10314;DHT22;5202;49.138;10.090;2024-01-07T13:07:59;1.40;99.90
10314;DHT22;5202;49.138;10.090;2024-01-07T13:10:28;1.50;99.90
10314;DHT22;5202;49.138;10.090;2024-01-07T13:12:56;1.40;99.90
10314;DHT22;5202;49.138;10.090;2024-01-07T13:15:39;1.30;99.90
10314;DHT22;5202;49.138;10.090;2024-01-07T13:18:08;1.30;99.90
10314;DHT22;5202;49.138;10.090;2024-01-07T13:20:39;1.40;99.90
10314;DHT22;5202;49.138;10.090;2024-01-07T13:23:07;1.50;99.90
10314;DHT22;5202;49.138;10.090;2024-01-07T13:25:36;1.50;99.90
10314;DHT22;5202;49.138;10.090;2024-01-07T13:28:04;1.40;99.90
10314;DHT22;5202;49.138;10.090;2024-01-07T13:30:39;1.50;99.90
10314;DHT22;5202;49.138;10.090;2024-01-07T13:33:09;1.40;99.90
10314;DHT22;5202;49.138;10.090;2024-01-07T13:35:38;1.30;99.90
10314;DHT22;5202;49.138;10.090;2024-01-07T13:38:07;1.20;99.90
10314;DHT22;5202;49.138;10.090;2024-01-07T13:40:36;1.20;99.90
10314;DHT22;5202;49.138;10.090;2024-01-07T13:43:05;1.30;99.90
10314;DHT22;5202;49.138;10.090;2024-01-07T13:45:33;1.20;99.90
10314;DHT22;5202;49.138;10.090;2024-01-07T13:48:03;1.10;99.90
10314;DHT22;5202;49.138;10.090;2024-01-07T13:50:34;1.10;99.90
10314;DHT22;5202;49.138;10.090;2024-01-07T13:53:06;1.10;99.90
10314;DHT22;5202;49.138;10.090;2024-01-07T13:55:34;1.20;99.90
10314;DHT22;5202;49.138;10.090;2024-01-07T13:58:03;1.20;99.90
10314;DHT22;5202;49.138;10.090;2024-01-07T14:00:32;1.20;99.90
10314;DHT22;5202;49.138;10.090;2024-01-07T14:03:01;1.30;99.90
10314;DHT22;5202;49.138;10.090;2024-01-07T14:05:31;1.00;99.90
10314;DHT22;5202;49.138;10.090;2024-01-07T14:07:59;1.00;99.90
10314;DHT22;5202;49.138;10.090;2024-01-07T14:10:28;1.00;99.90
10314;DHT22;5202;49.138;10.090;2024-01-07T14:12:57;1.10;99.90
10314;DHT22;5202;49.138;10.090;2024-01-07T14:15:25;1.10;99.90
10314;DHT22;5202;49.138;10.090;2024-01-07T14:17:55;1.00;99.90
10314;DHT22;5202;49.138;10.090;2024-01-07T14:20:25;1.00;99.90
10314;DHT22;5202;49.138;10.090;2024-01-07T14:22:55;0.90;99.90
10314;DHT22;5202;49.138;10.090;2024-01-07T14:25:23;0.90;99.90
10314;DHT22;5202;49.138;10.090;2024-01-07T14:27:52;0.80;99.90
10314;DHT22;5202;49.138;10.090;2024-01-07T14:30:21;1.00;99.90
10314;DHT22;5202;49.138;10.090;2024-01-07T14:32:49;1.00;99.90
10314;DHT22;5202;49.138;10.090;2024-01-07T14:35:18;1.10;99.90
10314;DHT22;5202;49.138;10.090;2024-01-07T14:37:48;1.10;99.90
10314;DHT22;5202;49.138;10.090;2024-01-07T14:40:17;0.90;99.90
10314;DHT22;5202;49.138;10.090;2024-01-07T14:42:46;1.00;99.90
10314;DHT22;5202;49.138;10.090;2024-01-07T14:45:15;0.80;99.90
10314;DHT22;5202;49.138;10.090;2024-01-07T14:47:43;0.80;99.90
10314;DHT22;5202;49.138;10.090;2024-01-07T14:50:12;0.80;99.90
10314;DHT22;5202;49.138;10.090;2024-01-07T14:52:40;0.80;99.90
10314;DHT22;5202;49.138;10.090;2024-01-07T14:55:10;0.90;99.90
10314;DHT22;5202;49.138;10.090;2024-01-07T14:57:39;1.00;99.90
10314;DHT22;5202;49.138;10.090;2024-01-07T15:00:09;1.00;99.90
10314;DHT22;5202;49.138;10.090;2024-01-07T15:02:38;1.00;99.90
10314;DHT22;5202;49.138;10.090;2024-01-07T15:05:08;0.90;99.90
10314;DHT22;5202;49.138;10.090;2024-01-07T15:07:44;0.90;99.90
10314;DHT22;5202;49.138;10.090;2024-01-07T15:10:16;0.90;99.90
10314;DHT22;5202;49.138;10.090;2024-01-07T15:12:45;0.90;99.90
10314;DHT22;5202;49.138;10.090;2024-01-07T15:15:27;0.90;99.90
10314;DHT22;5202;49.138;10.090;2024-01-07T15:17:57;0.80;99.90
10314;DHT22;5202;49.138;10.090;2024-01-07T15:20:26;0.70;99.90
10314;DHT22;5202;49.138;10.090;2024-01-07T15:22:54;0.80;99.90
10314;DHT22;5202;49.138;10.090;2024-01-07T15:25:24;0.80;99.90
10314;DHT22;5202;49.138;10.090;2024-01-07T15:27:53;0.70;99.90
10314;DHT22;5202;49.138;10.090;2024-01-07T15:30:21;0.70;99.90
10314;DHT22;5202;49.138;10.090;2024-01-07T15:32:50;0.70;99.90
10314;DHT22;5202;49.138;10.090;2024-01-07T15:35:18;0.70;99.90
10314;DHT22;5202;49.138;10.090;2024-01-07T15:37:47;0.50;99.90
10314;DHT22;5202;49.138;10.090;2024-01-07T15:40:15;0.60;99.90
10314;DHT22;5202;49.138;10.090;2024-01-07T15:42:45;0.60;99.90
10314;DHT22;5202;49.138;10.090;2024-01-07T15:45:14;0.50;99.90
10314;DHT22;5202;49.138;10.090;2024-01-07T15:47:42;0.60;99.90
10314;DHT22;5202;49.138;10.090;2024-01-07T15:50:13;0.50;99.90
10314;DHT22;5202;49.138;10.090;2024-01-07T15:52:42;0.50;99.90
10314;DHT22;5202;49.138;10.090;2024-01-07T15:55:14;0.30;99.90
10314;DHT22;5202;49.138;10.090;2024-01-07T15:57:42;0.20;99.90
10314;DHT22;5202;49.138;10.090;2024-01-07T16:00:14;0.20;99.90